Time;durP1;ratioP1;P1;durP2;ratioP2;P2;SDS_P1;SDS_P2;PMS_P1;PMS_P2;Temp;Humidity;BMP_temperature;BMP_pressure;BME280_temperature;BME280_humidity;BME280_pressure;Samples;Min_cycle;Max_cycle;Signal;HPM_P1;HPM_P2
2023/10/11 00:00:34;;;;;;;19.57;10.30;;;13.40;99.90;;;;;;5098934;28;20913;-69
2023/10/11 00:03:05;;;;;;;29.23;10.57;;;13.40;99.90;;;;;;5094400;28;20438;-70
2023/10/11 00:05:40;;;;;;;23.33;10.83;;;13.40;99.90;;;;;;5093911;28;20469;-69
2023/10/11 00:08:09;;;;;;;26.73;10.80;;;13.40;99.90;;;;;;5096339;28;20425;-69
2023/10/11 00:10:42;;;;;;;22.37;10.50;;;13.40;99.90;;;;;;5093433;28;20948;-70
2023/10/11 00:13:10;;;;;;;15.03;10.10;;;13.40;99.90;;;;;;5090431;28;20444;-70
2023/10/11 00:15:37;;;;;;;21.33;9.90;;;13.30;99.90;;;;;;5090080;28;20457;-69
2023/10/11 00:18:04;;;;;;;18.80;10.80;;;13.30;99.90;;;;;;5093950;28;20479;-69
2023/10/11 00:20:46;;;;;;;16.53;10.00;;;13.30;99.90;;;;;;5090766;28;20447;-70
2023/10/11 00:23:15;;;;;;;22.93;10.77;;;13.30;99.90;;;;;;5094424;28;20928;-69
2023/10/11 00:25:44;;;;;;;24.40;10.20;;;13.20;99.90;;;;;;5093280;28;20526;-69
2023/10/11 00:28:12;;;;;;;24.77;10.10;;;13.20;99.90;;;;;;5090785;28;20457;-70
2023/10/11 00:30:38;;;;;;;21.57;10.40;;;13.20;99.90;;;;;;5094630;28;20957;-70
2023/10/11 00:33:07;;;;;;;19.63;10.20;;;13.20;99.90;;;;;;5098263;28;20451;-70
2023/10/11 00:35:34;;;;;;;21.50;11.10;;;13.20;99.90;;;;;;5090634;28;20443;-70
2023/10/11 00:38:04;;;;;;;23.23;11.30;;;13.20;99.90;;;;;;5098216;28;20443;-70
2023/10/11 00:40:34;;;;;;;18.30;9.97;;;13.20;99.90;;;;;;5089790;28;20455;-69
2023/10/11 00:43:01;;;;;;;18.97;8.93;;;13.10;99.90;;;;;;5089810;28;20454;-70
2023/10/11 00:45:31;;;;;;;20.47;10.50;;;13.10;99.90;;;;;;5094058;28;20442;-70
2023/10/11 00:47:59;;;;;;;22.73;11.53;;;13.10;99.90;;;;;;5090766;28;20940;-69
2023/10/11 00:50:30;;;;;;;17.20;10.10;;;13.00;99.90;;;;;;5097024;28;20461;-69
2023/10/11 00:53:00;;;;;;;18.43;10.10;;;13.00;99.90;;;;;;5103232;28;20442;-70
2023/10/11 00:55:29;;;;;;;20.37;10.60;;;12.90;99.90;;;;;;5105323;28;20473;-70
2023/10/11 00:57:57;;;;;;;17.70;10.60;;;12.90;99.90;;;;;;5102653;28;20939;-69
2023/10/11 01:00:25;;;;;;;27.10;10.73;;;12.80;99.90;;;;;;5095724;28;20446;-70
2023/10/11 01:02:53;;;;;;;19.90;11.17;;;12.80;99.90;;;;;;5098088;28;20465;-69
2023/10/11 01:05:20;;;;;;;21.83;10.97;;;12.70;99.90;;;;;;5095893;28;20495;-69
2023/10/11 01:07:49;;;;;;;22.23;10.90;;;12.70;99.90;;;;;;5099751;28;20485;-69
2023/10/11 01:10:17;;;;;;;18.97;10.80;;;12.70;99.90;;;;;;5097816;28;20920;-70
2023/10/11 01:12:43;;;;;;;19.90;10.70;;;12.60;99.90;;;;;;5093938;28;20556;-69
2023/10/11 01:15:12;;;;;;;20.10;10.57;;;12.60;99.90;;;;;;5096831;28;21032;-69
2023/10/11 01:17:39;;;;;;;20.33;11.23;;;12.60;99.90;;;;;;5093382;28;20781;-70
2023/10/11 01:20:13;;;;;;;23.37;11.33;;;12.50;99.90;;;;;;5089067;28;20508;-69
2023/10/11 01:22:41;;;;;;;20.13;11.47;;;12.50;99.90;;;;;;5097334;28;20805;-69
2023/10/11 01:25:12;;;;;;;23.00;10.63;;;12.50;99.90;;;;;;5103188;28;20491;-69
2023/10/11 01:27:39;;;;;;;18.07;10.40;;;12.50;99.90;;;;;;5105754;28;20485;-69
2023/10/11 01:30:08;;;;;;;17.87;10.10;;;12.40;99.90;;;;;;5102554;28;20527;-69
2023/10/11 01:32:37;;;;;;;20.83;11.97;;;12.40;99.90;;;;;;5101090;28;20501;-69
2023/10/11 01:35:04;;;;;;;18.53;11.27;;;12.40;99.90;;;;;;5093405;28;20924;-69
2023/10/11 01:37:36;;;;;;;16.13;9.97;;;12.30;99.90;;;;;;5094691;28;20534;-69
2023/10/11 01:40:07;;;;;;;20.93;11.73;;;12.30;99.90;;;;;;5103050;28;20812;-69
2023/10/11 01:42:34;;;;;;;25.97;12.27;;;12.30;99.90;;;;;;5101784;28;20532;-69
2023/10/11 01:45:03;;;;;;;28.20;11.57;;;12.30;99.90;;;;;;5098425;28;20820;-69
2023/10/11 01:47:33;;;;;;;24.17;12.40;;;12.30;99.90;;;;;;5105340;28;20489;-69
2023/10/11 01:50:00;;;;;;;17.17;10.20;;;12.30;99.90;;;;;;5098578;28;20580;-69
2023/10/11 01:52:26;;;;;;;21.20;12.20;;;12.20;99.90;;;;;;5105938;28;20442;-69
2023/10/11 01:54:55;;;;;;;26.27;11.50;;;12.20;99.90;;;;;;5104678;28;20873;-69
2023/10/11 01:57:25;;;;;;;19.50;11.33;;;12.20;99.90;;;;;;5105002;28;20466;-69
2023/10/11 01:59:51;;;;;;;26.57;12.10;;;12.20;99.90;;;;;;5103442;28;20471;-69
2023/10/11 02:02:18;;;;;;;21.97;10.63;;;12.20;99.90;;;;;;5104166;28;20451;-70
2023/10/11 02:04:47;;;;;;;22.63;12.17;;;12.20;99.90;;;;;;5104024;28;20876;-69
2023/10/11 02:07:14;;;;;;;21.30;11.20;;;12.10;99.90;;;;;;5103605;28;20900;-69
2023/10/11 02:09:43;;;;;;;22.30;11.07;;;12.10;99.90;;;;;;5099164;28;21089;-69
2023/10/11 02:12:10;;;;;;;19.50;11.90;;;12.10;99.90;;;;;;5103031;28;20478;-69
2023/10/11 02:14:38;;;;;;;21.87;11.50;;;12.10;99.90;;;;;;5106403;28;20537;-69
2023/10/11 02:17:05;;;;;;;17.33;10.40;;;12.10;99.90;;;;;;5098619;28;20689;-69
2023/10/11 02:19:32;;;;;;;19.70;11.43;;;12.10;99.90;;;;;;5093491;28;20514;-69
2023/10/11 02:22:00;;;;;;;26.60;12.63;;;12.10;99.90;;;;;;5097613;28;20458;-69
2023/10/11 02:24:27;;;;;;;17.30;11.30;;;12.00;99.90;;;;;;5105666;28;20953;-69
2023/10/11 02:26:54;;;;;;;18.30;10.50;;;12.10;99.90;;;;;;5104515;28;20486;-69
2023/10/11 02:29:21;;;;;;;23.70;11.17;;;12.00;99.90;;;;;;5100523;28;20459;-69
2023/10/11 02:31:51;;;;;;;29.43;11.60;;;12.00;99.90;;;;;;5101321;28;21013;-69
2023/10/11 02:34:18;;;;;;;21.37;11.70;;;12.00;99.90;;;;;;5098032;28;20528;-69
2023/10/11 02:36:56;;;;;;;18.97;10.80;;;12.00;99.90;;;;;;5091534;28;20956;-69
2023/10/11 02:39:31;;;;;;;21.53;11.00;;;12.00;99.90;;;;;;5105073;28;20925;-69
2023/10/11 02:41:58;;;;;;;25.73;12.50;;;12.00;99.90;;;;;;5104166;28;20472;-69
2023/10/11 02:44:25;;;;;;;20.23;11.67;;;12.00;99.90;;;;;;5105908;28;20525;-69
2023/10/11 02:46:53;;;;;;;22.43;11.03;;;11.90;99.90;;;;;;5102603;28;20481;-69
2023/10/11 02:49:20;;;;;;;29.00;11.93;;;11.90;99.90;;;;;;5104199;28;20508;-70
2023/10/11 02:51:53;;;;;;;22.47;12.77;;;11.90;99.90;;;;;;5105963;28;20438;-70
2023/10/11 02:54:20;;;;;;;25.97;12.40;;;11.90;99.90;;;;;;5104839;28;21019;-69
2023/10/11 02:56:52;;;;;;;21.10;11.03;;;11.80;99.90;;;;;;5105886;28;20950;-69
2023/10/11 02:59:22;;;;;;;23.03;11.40;;;11.80;99.90;;;;;;5102695;28;20446;-69
2023/10/11 03:01:59;;;;;;;21.50;12.40;;;11.80;99.90;;;;;;5102541;28;20963;-70
2023/10/11 03:04:29;;;;;;;26.03;11.30;;;11.70;99.90;;;;;;5106026;28;21054;-70
2023/10/11 03:06:56;;;;;;;19.60;10.33;;;11.70;99.90;;;;;;5102341;28;20521;-69
2023/10/11 03:09:27;;;;;;;16.30;11.13;;;11.60;99.90;;;;;;5101023;28;20884;-69
2023/10/11 03:11:56;;;;;;;28.47;12.40;;;11.60;99.90;;;;;;5091675;28;20466;-69
2023/10/11 03:14:24;;;;;;;28.83;11.70;;;11.60;99.90;;;;;;5103151;28;20541;-70
2023/10/11 03:16:57;;;;;;;24.00;12.00;;;11.50;99.90;;;;;;5103297;28;20472;-69
2023/10/11 03:19:24;;;;;;;20.80;11.00;;;11.50;99.90;;;;;;5089196;28;20457;-69
2023/10/11 03:21:53;;;;;;;23.83;11.30;;;11.50;99.90;;;;;;5095315;28;20453;-69
2023/10/11 03:24:20;;;;;;;21.40;12.20;;;11.50;99.90;;;;;;5105173;28;20534;-70
2023/10/11 03:26:48;;;;;;;23.47;10.90;;;11.50;99.90;;;;;;5105849;28;20477;-69
2023/10/11 03:29:18;;;;;;;22.53;11.27;;;11.40;99.90;;;;;;5098242;28;20459;-71
2023/10/11 03:31:45;;;;;;;28.73;13.57;;;11.40;99.90;;;;;;5106365;28;20438;-69
2023/10/11 03:34:12;;;;;;;19.07;11.67;;;11.40;99.90;;;;;;5095362;28;20450;-70
2023/10/11 03:36:49;;;;;;;18.00;11.70;;;11.40;99.90;;;;;;5090913;28;20913;-70
2023/10/11 03:39:27;;;;;;;24.10;11.97;;;11.40;99.90;;;;;;5104006;28;20478;-69
2023/10/11 03:42:05;;;;;;;18.87;11.10;;;11.30;99.90;;;;;;5105648;28;20453;-69
2023/10/11 03:44:35;;;;;;;21.90;11.77;;;11.30;99.90;;;;;;5095271;28;20957;-69
2023/10/11 03:47:05;;;;;;;21.33;11.13;;;11.30;99.90;;;;;;5104331;28;20481;-70
2023/10/11 03:49:50;;;;;;;25.30;12.20;;;11.30;99.90;;;;;;5099659;28;20453;-69
2023/10/11 03:52:20;;;;;;;23.30;12.30;;;11.30;99.90;;;;;;5102393;28;20493;-70
2023/10/11 03:54:53;;;;;;;20.30;11.80;;;11.30;99.90;;;;;;5106322;28;20542;-69
2023/10/11 03:57:19;;;;;;;24.47;12.13;;;11.20;99.90;;;;;;5103392;28;20559;-68
2023/10/11 03:59:51;;;;;;;25.40;11.90;;;11.20;99.90;;;;;;5106594;28;20442;-69
2023/10/11 04:02:18;;;;;;;20.03;11.67;;;11.20;99.90;;;;;;5104846;28;20474;-69
2023/10/11 04:04:48;;;;;;;20.73;11.37;;;11.10;99.90;;;;;;5106657;28;20931;-69
2023/10/11 04:07:16;;;;;;;27.90;12.97;;;11.20;99.90;;;;;;5096916;28;20995;-69
2023/10/11 04:09:45;;;;;;;22.97;12.10;;;11.10;99.90;;;;;;5099766;28;20450;-69
2023/10/11 04:12:14;;;;;;;21.60;12.00;;;11.10;99.90;;;;;;5090540;28;20538;-69
2023/10/11 04:14:44;;;;;;;23.60;12.20;;;11.10;99.90;;;;;;5090678;28;20502;-68
2023/10/11 04:17:26;;;;;;;23.63;12.00;;;11.10;99.90;;;;;;5087943;28;20498;-69
2023/10/11 04:19:59;;;;;;;22.77;11.60;;;11.10;99.90;;;;;;5100345;28;20522;-69
2023/10/11 04:22:31;;;;;;;22.77;12.50;;;11.00;99.90;;;;;;5099963;28;21026;-69
2023/10/11 04:25:06;;;;;;;30.17;13.60;;;11.00;99.90;;;;;;5106103;28;20460;-70
2023/10/11 04:27:45;;;;;;;28.00;12.23;;;11.00;99.90;;;;;;5094161;28;21014;-70
2023/10/11 04:30:24;;;;;;;23.77;12.40;;;11.00;99.90;;;;;;5104617;28;20499;-69
2023/10/11 04:32:55;;;;;;;30.50;13.43;;;11.00;99.90;;;;;;5106768;28;20483;-69
2023/10/11 04:35:24;;;;;;;29.53;14.13;;;11.00;99.90;;;;;;5092689;28;20486;-69
2023/10/11 04:38:01;;;;;;;21.80;13.20;;;11.00;99.90;;;;;;5106485;28;20522;-68
2023/10/11 04:40:42;;;;;;;25.20;12.57;;;10.90;99.90;;;;;;5106106;28;20534;-69
2023/10/11 04:43:20;;;;;;;23.33;13.40;;;10.90;99.90;;;;;;5098704;28;20540;-68
2023/10/11 04:45:49;;;;;;;25.17;12.90;;;10.90;99.90;;;;;;5107237;28;20444;-68
2023/10/11 04:48:18;;;;;;;29.00;14.17;;;10.90;99.90;;;;;;5103344;28;20478;-68
2023/10/11 04:50:47;;;;;;;23.23;12.97;;;10.90;99.90;;;;;;5101945;28;20473;-68
2023/10/11 04:53:22;;;;;;;35.07;14.13;;;10.80;99.90;;;;;;5104725;28;20923;-69
2023/10/11 04:55:58;;;;;;;27.30;13.43;;;11.00;99.90;;;;;;5104566;28;20453;-69
2023/10/11 04:58:42;;;;;;;27.17;12.80;;;10.80;99.90;;;;;;5106183;28;20430;-70
2023/10/11 05:01:11;;;;;;;31.43;13.80;;;10.80;99.90;;;;;;5102236;28;20454;-69
2023/10/11 05:03:38;;;;;;;30.13;15.10;;;10.80;99.90;;;;;;5107450;28;20577;-69
2023/10/11 05:06:15;;;;;;;25.83;11.90;;;10.80;99.90;;;;;;5105399;28;21000;-69
2023/10/11 05:08:51;;;;;;;25.73;13.87;;;10.80;99.90;;;;;;5091329;28;20486;-69
2023/10/11 05:11:31;;;;;;;23.83;12.93;;;10.80;99.90;;;;;;5091058;28;20928;-69
2023/10/11 05:14:07;;;;;;;42.37;13.37;;;10.80;99.90;;;;;;5103872;28;21107;-69
2023/10/11 05:16:37;;;;;;;20.60;12.70;;;10.70;99.90;;;;;;5088164;28;20558;-69
2023/10/11 05:19:05;;;;;;;24.03;12.90;;;10.70;99.90;;;;;;5087610;28;20438;-69
2023/10/11 05:21:38;;;;;;;22.30;11.70;;;10.70;99.90;;;;;;5087828;28;20443;-69
2023/10/11 05:24:27;;;;;;;23.27;12.43;;;10.70;99.90;;;;;;5087138;28;20456;-69
2023/10/11 05:27:03;;;;;;;22.90;12.03;;;10.70;99.90;;;;;;5098529;28;20552;-69
2023/10/11 05:29:36;;;;;;;26.87;12.80;;;10.60;99.90;;;;;;5106920;28;20473;-69
2023/10/11 05:35:07;;;;;;;31.50;14.13;;;10.60;99.90;;;;;;5085170;28;20802;-69
2023/10/11 05:51:13;;;;;;;30.63;15.00;;;10.50;99.90;;;;;;5109867;28;20914;-69
2023/10/11 05:53:40;;;;;;;23.60;13.77;;;10.60;99.90;;;;;;5111418;27;20446;-69
2023/10/11 05:56:09;;;;;;;23.70;13.77;;;10.60;99.90;;;;;;5104666;28;20469;-70
2023/10/11 05:58:36;;;;;;;31.27;14.17;;;10.60;99.90;;;;;;5111107;28;20434;-70
2023/10/11 06:01:11;;;;;;;26.97;12.90;;;10.60;99.90;;;;;;5110418;28;20935;-69
2023/10/11 06:03:38;;;;;;;23.97;14.23;;;10.70;99.90;;;;;;5098619;28;20520;-69
2023/10/11 06:06:10;;;;;;;30.03;14.80;;;10.70;99.90;;;;;;5110177;28;20462;-69
2023/10/11 06:08:39;;;;;;;22.40;13.17;;;10.80;99.90;;;;;;5095949;28;20485;-69
2023/10/11 06:11:08;;;;;;;25.37;12.77;;;10.80;99.90;;;;;;5107716;28;20460;-69
2023/10/11 06:13:36;;;;;;;26.70;13.67;;;10.90;99.90;;;;;;5092890;28;20810;-69
2023/10/11 06:16:07;;;;;;;25.30;12.67;;;11.00;99.90;;;;;;5105946;28;20469;-69
2023/10/11 06:18:39;;;;;;;37.83;15.40;;;11.00;99.90;;;;;;5088669;28;20545;-69
2023/10/11 06:21:06;;;;;;;27.80;13.70;;;11.20;99.90;;;;;;5091939;28;20840;-69
2023/10/11 06:23:38;;;;;;;24.70;13.20;;;11.40;99.90;;;;;;5089209;28;20546;-70
2023/10/11 06:26:28;;;;;;;26.07;14.20;;;11.70;99.90;;;;;;5087410;28;20471;-69
2023/10/11 06:29:03;;;;;;;26.97;12.27;;;12.00;99.90;;;;;;5087333;28;20587;-71
2023/10/11 06:31:34;;;;;;;28.30;13.70;;;12.40;99.90;;;;;;5095344;28;20843;-70
2023/10/11 06:34:03;;;;;;;20.87;11.93;;;12.80;99.90;;;;;;5090854;28;20554;-70
2023/10/11 06:36:35;;;;;;;25.87;12.80;;;13.30;99.90;;;;;;5090329;28;20463;-69
2023/10/11 06:39:29;;;;;;;19.80;11.47;;;13.80;99.90;;;;;;5088952;28;20496;-69
2023/10/11 06:41:51;;;;;;;17.73;11.60;;;14.30;99.90;;;;;;5091724;28;20542;-70
2023/10/11 06:44:18;;;;;;;25.70;12.10;;;14.80;99.90;;;;;;5090639;28;21194;-69
2023/10/11 06:46:50;;;;;;;26.20;11.60;;;15.20;99.90;;;;;;5088945;28;20220;-70
2023/10/11 06:49:18;;;;;;;26.17;11.60;;;15.60;99.90;;;;;;5088484;28;20479;-71
2023/10/11 06:51:44;;;;;;;21.03;11.63;;;15.90;99.90;;;;;;5087241;28;20562;-69
2023/10/11 06:54:15;;;;;;;17.63;10.67;;;16.20;99.90;;;;;;5087554;28;20443;-71
2023/10/11 06:56:42;;;;;;;24.07;11.67;;;16.60;99.90;;;;;;5088457;28;20485;-68
2023/10/11 06:59:10;;;;;;;25.80;12.33;;;17.00;99.90;;;;;;5086716;28;20877;-68
2023/10/11 07:01:41;;;;;;;24.10;11.00;;;17.40;99.90;;;;;;5088007;28;20442;-69
2023/10/11 07:04:09;;;;;;;18.90;11.87;;;17.70;99.90;;;;;;5086384;28;20445;-69
2023/10/11 07:06:36;;;;;;;22.77;10.90;;;18.00;99.90;;;;;;5087365;28;20503;-69
2023/10/11 07:09:05;;;;;;;24.17;11.00;;;18.20;99.90;;;;;;5087146;28;20457;-69
2023/10/11 07:11:41;;;;;;;21.43;11.87;;;18.50;99.90;;;;;;5087506;28;20455;-69
2023/10/11 07:14:14;;;;;;;23.23;10.88;;;19.00;99.90;;;;;;5086784;28;20439;-69
2023/10/11 07:16:44;;;;;;;28.57;11.90;;;19.30;99.90;;;;;;5083370;28;20229;-69
2023/10/11 07:19:15;;;;;;;22.80;11.97;;;19.60;99.90;;;;;;5083901;28;20509;-69
2023/10/11 07:21:52;;;;;;;24.23;11.00;;;19.90;99.90;;;;;;5087470;28;20485;-69
2023/10/11 07:24:33;;;;;;;22.33;10.60;;;20.30;99.90;;;;;;5086558;28;20948;-69
2023/10/11 07:27:07;;;;;;;18.27;10.97;;;20.50;99.90;;;;;;5087375;28;20477;-69
2023/10/11 07:29:35;;;;;;;19.33;10.80;;;20.70;99.90;;;;;;5086060;28;20478;-69
2023/10/11 07:32:03;;;;;;;19.67;11.00;;;21.10;99.90;;;;;;5087590;28;20454;-69
2023/10/11 07:34:32;;;;;;;22.60;11.03;;;21.30;99.90;;;;;;5087018;28;20465;-69
2023/10/11 07:37:03;;;;;;;18.63;9.90;;;21.30;99.90;;;;;;5086293;28;20470;-70
2023/10/11 07:39:33;;;;;;;19.67;10.93;;;21.40;99.90;;;;;;5086466;28;20814;-70
2023/10/11 07:42:06;;;;;;;33.93;11.53;;;21.30;99.90;;;;;;5086402;28;20454;-69
2023/10/11 07:44:36;;;;;;;18.70;10.53;;;21.20;99.90;;;;;;5087202;28;20462;-70
2023/10/11 07:47:03;;;;;;;22.77;10.57;;;21.30;99.90;;;;;;5087307;28;20562;-70
2023/10/11 07:49:38;;;;;;;19.80;10.47;;;21.10;99.90;;;;;;5085388;28;20482;-70
2023/10/11 07:52:08;;;;;;;20.90;10.73;;;20.70;99.90;;;;;;5086918;28;20761;-70
2023/10/11 07:54:35;;;;;;;19.03;10.37;;;20.50;99.90;;;;;;5086700;28;20435;-70
2023/10/11 07:57:04;;;;;;;19.50;10.33;;;20.30;99.90;;;;;;5086417;28;20473;-70
2023/10/11 07:59:31;;;;;;;21.60;10.20;;;20.00;99.90;;;;;;5086630;28;20493;-70
2023/10/11 08:01:59;;;;;;;16.97;10.70;;;19.90;99.90;;;;;;5086154;28;20458;-70
2023/10/11 08:04:28;;;;;;;20.80;10.70;;;19.80;99.90;;;;;;5086115;28;21175;-70
2023/10/11 08:07:00;;;;;;;30.90;10.60;;;20.00;99.90;;;;;;5086657;28;20566;-70
2023/10/11 08:09:28;;;;;;;21.93;9.80;;;20.10;99.90;;;;;;5085494;28;20585;-70
2023/10/11 08:11:56;;;;;;;29.17;10.70;;;20.30;99.90;;;;;;5085598;28;20450;-70
2023/10/11 08:14:28;;;;;;;20.00;10.77;;;20.50;99.90;;;;;;5084573;28;20788;-70
2023/10/11 08:16:57;;;;;;;22.33;9.30;;;20.80;99.90;;;;;;5085259;28;20542;-70
2023/10/11 08:19:23;;;;;;;28.63;10.70;;;21.00;99.90;;;;;;5085955;28;20453;-70
2023/10/11 08:21:55;;;;;;;19.47;10.30;;;21.00;99.90;;;;;;5086211;28;20447;-70
2023/10/11 08:24:25;;;;;;;23.10;10.53;;;20.90;99.90;;;;;;5086730;28;20466;-70
2023/10/11 08:26:53;;;;;;;19.40;9.67;;;20.80;99.90;;;;;;5085701;28;20466;-70
2023/10/11 08:29:29;;;;;;;26.70;10.30;;;20.70;99.90;;;;;;5086034;28;20512;-67
2023/10/11 08:31:57;;;;;;;18.63;10.13;;;20.60;99.90;;;;;;5085715;28;20543;-69
2023/10/11 08:34:25;;;;;;;20.87;10.57;;;20.60;99.90;;;;;;5086246;28;20498;-69
2023/10/11 08:36:54;;;;;;;19.20;10.50;;;20.60;99.90;;;;;;5084274;28;20512;-68
2023/10/11 08:39:21;;;;;;;21.50;10.40;;;20.10;99.90;;;;;;5083066;28;20518;-68
2023/10/11 08:41:49;;;;;;;25.70;10.70;;;20.20;99.90;;;;;;5085199;28;20451;-68
2023/10/11 08:44:20;;;;;;;18.50;9.67;;;20.40;99.90;;;;;;5084286;28;20516;-69
2023/10/11 08:46:50;;;;;;;15.80;9.07;;;20.40;99.90;;;;;;5085281;28;20531;-69
2023/10/11 08:49:17;;;;;;;19.83;9.73;;;20.70;99.90;;;;;;5085970;28;20491;-69
2023/10/11 08:51:44;;;;;;;26.23;10.00;;;20.90;99.90;;;;;;5085246;28;20451;-69
2023/10/11 08:54:13;;;;;;;15.70;8.33;;;21.20;99.90;;;;;;5085994;28;20442;-69
2023/10/11 08:56:40;;;;;;;22.83;9.10;;;21.30;99.90;;;;;;5085483;28;20463;-69
2023/10/11 08:59:14;;;;;;;18.73;8.53;;;21.50;99.90;;;;;;5085288;28;20443;-69
2023/10/11 09:01:45;;;;;;;20.40;8.50;;;21.70;99.90;;;;;;5086506;28;20545;-69
2023/10/11 09:04:14;;;;;;;16.30;8.90;;;22.00;99.90;;;;;;5085180;28;20934;-69
2023/10/11 09:06:43;;;;;;;31.50;9.57;;;22.00;99.90;;;;;;5084840;28;20466;-69
2023/10/11 09:09:15;;;;;;;14.63;8.43;;;22.10;99.90;;;;;;5086224;28;20486;-69
2023/10/11 09:11:53;;;;;;;27.90;8.67;;;22.10;99.90;;;;;;5089094;28;20446;-69
2023/10/11 09:14:23;;;;;;;17.60;8.80;;;22.20;99.90;;;;;;5089921;28;20456;-70
2023/10/11 09:16:51;;;;;;;19.43;8.00;;;22.30;99.90;;;;;;5089833;28;20466;-69
2023/10/11 09:19:19;;;;;;;19.30;8.60;;;22.30;99.90;;;;;;5088892;28;20455;-69
2023/10/11 09:22:01;;;;;;;14.60;8.33;;;22.30;99.90;;;;;;5088934;28;20439;-69
2023/10/11 09:24:37;;;;;;;24.83;8.53;;;22.30;99.90;;;;;;5089011;28;20903;-69
2023/10/11 09:27:18;;;;;;;17.67;7.90;;;22.20;99.90;;;;;;5089056;28;20469;-69
2023/10/11 09:29:47;;;;;;;19.53;8.10;;;22.30;99.90;;;;;;5088816;28;20485;-69
2023/10/11 09:32:19;;;;;;;20.43;7.47;;;22.40;99.90;;;;;;5088799;28;20465;-69
2023/10/11 09:34:46;;;;;;;15.53;7.43;;;22.50;99.90;;;;;;5090322;28;20441;-69
2023/10/11 09:37:13;;;;;;;16.90;7.90;;;22.60;99.90;;;;;;5087755;28;20515;-69
2023/10/11 09:39:40;;;;;;;21.30;7.80;;;22.80;99.90;;;;;;5089621;28;20480;-69
2023/10/11 09:42:11;;;;;;;14.40;7.90;;;22.90;99.90;;;;;;5089398;28;20446;-69
2023/10/11 09:44:40;;;;;;;17.57;7.30;;;23.20;99.90;;;;;;5088059;28;20434;-69
2023/10/11 09:47:16;;;;;;;19.27;6.80;;;23.40;99.90;;;;;;5089779;28;20583;-69
2023/10/11 09:49:43;;;;;;;12.93;6.67;;;23.60;99.90;;;;;;5088362;28;20513;-70
2023/10/11 09:52:10;;;;;;;20.47;7.47;;;23.60;99.90;;;;;;5088603;28;20450;-69
2023/10/11 09:54:39;;;;;;;20.80;7.37;;;23.70;99.90;;;;;;5089152;28;20462;-69
2023/10/11 09:57:15;;;;;;;16.13;6.80;;;24.00;99.90;;;;;;5088613;28;20467;-69
2023/10/11 09:59:48;;;;;;;17.00;7.20;;;24.20;99.90;;;;;;5087529;28;20523;-69
2023/10/11 10:02:22;;;;;;;20.33;8.47;;;24.30;99.90;;;;;;5088039;28;20435;-69
2023/10/11 10:04:57;;;;;;;14.60;7.50;;;24.50;99.90;;;;;;5087075;28;21342;-70
2023/10/11 10:07:26;;;;;;;20.60;7.50;;;24.60;99.90;;;;;;5087157;28;20462;-70
2023/10/11 10:09:54;;;;;;;14.43;7.80;;;24.30;99.90;;;;;;5088055;28;20490;-69
2023/10/11 10:12:21;;;;;;;18.17;7.37;;;24.20;99.90;;;;;;5087641;28;20439;-71
2023/10/11 10:14:51;;;;;;;13.90;6.50;;;24.00;99.90;;;;;;5087764;28;20459;-69
2023/10/11 10:17:20;;;;;;;27.23;7.80;;;23.80;99.90;;;;;;5087808;28;20466;-69
2023/10/11 10:19:47;;;;;;;27.20;7.97;;;23.80;99.90;;;;;;5088711;28;20469;-69
2023/10/11 10:22:16;;;;;;;13.70;7.27;;;23.70;99.90;;;;;;5087678;28;20451;-69
2023/10/11 10:24:44;;;;;;;19.13;7.40;;;23.80;99.90;;;;;;5088284;28;20447;-70
2023/10/11 10:27:37;;;;;;;16.57;6.37;;;23.90;99.90;;;;;;5089247;28;20545;-70
2023/10/11 10:30:06;;;;;;;16.53;7.13;;;24.00;99.90;;;;;;5088393;28;20979;-70
2023/10/11 10:32:34;;;;;;;11.90;6.60;;;24.50;99.90;;;;;;5087618;28;21178;-70
2023/10/11 10:35:36;;;;;;;9.63;5.90;;;25.00;99.90;;;;;;5088693;28;20439;-70
2023/10/11 10:38:05;;;;;;;13.17;6.50;;;25.30;99.90;;;;;;5088441;28;21325;-70
2023/10/11 10:40:37;;;;;;;17.03;7.07;;;25.10;99.90;;;;;;5087663;28;20465;-70
2023/10/11 10:43:23;;;;;;;15.33;5.87;;;25.00;99.90;;;;;;5088578;28;20446;-71
2023/10/11 10:45:50;;;;;;;13.50;6.23;;;25.00;99.90;;;;;;5088110;28;21136;-70
2023/10/11 10:48:19;;;;;;;13.97;6.10;;;25.30;99.90;;;;;;5087568;28;20443;-70
2023/10/11 10:50:50;;;;;;;12.53;6.30;;;25.70;99.90;;;;;;5087216;28;20540;-70
2023/10/11 10:53:17;;;;;;;13.30;5.93;;;25.80;99.90;;;;;;5085031;28;20463;-70
2023/10/11 10:55:43;;;;;;;12.53;6.40;;;25.80;99.90;;;;;;5087197;28;20965;-70
2023/10/11 10:58:16;;;;;;;15.90;7.10;;;26.10;99.90;;;;;;5086937;28;20438;-70
2023/10/11 11:00:43;;;;;;;15.53;5.93;;;26.20;99.90;;;;;;5084855;28;20466;-70
2023/10/11 11:03:22;;;;;;;14.97;6.40;;;26.50;99.90;;;;;;5088055;28;20487;-70
2023/10/11 11:05:58;;;;;;;18.03;6.10;;;27.00;99.90;;;;;;5086667;28;20449;-70
2023/10/11 11:08:27;;;;;;;13.97;5.40;;;27.20;99.90;;;;;;5084131;28;20458;-70
2023/10/11 11:13:58;;;;;;;16.30;5.20;;;28.20;99.90;;;;;;5115264;27;20527;-69
2023/10/11 11:16:27;;;;;;;10.20;5.03;;;28.60;99.90;;;;;;5117018;28;20577;-69
2023/10/11 11:18:53;;;;;;;11.00;4.40;;;28.80;99.90;;;;;;5123454;28;20451;-69
2023/10/11 11:21:23;;;;;;;9.27;4.50;;;28.50;99.90;;;;;;5123302;28;20448;-69
2023/10/11 11:23:50;;;;;;;14.63;5.13;;;28.60;99.90;;;;;;5123781;28;20528;-69
2023/10/11 11:26:17;;;;;;;8.90;4.53;;;28.70;99.90;;;;;;5123115;28;20809;-69
2023/10/11 11:28:44;;;;;;;9.07;5.03;;;28.80;99.90;;;;;;5122464;28;20494;-69
2023/10/11 11:31:25;;;;;;;8.90;4.70;;;28.60;99.90;;;;;;5122691;28;20866;-69
2023/10/11 11:34:05;;;;;;;13.30;4.50;;;28.80;99.90;;;;;;5124068;28;20476;-69
2023/10/11 11:36:34;;;;;;;14.13;4.30;;;28.90;99.90;;;;;;5123369;28;21703;-69
2023/10/11 11:41:42;;;;;;;8.87;4.60;;;29.00;99.90;;;;;;5123309;28;20417;-69
2023/10/11 11:44:11;;;;;;;7.33;4.60;;;29.00;99.90;;;;;;5123506;28;20548;-69
2023/10/11 11:46:42;;;;;;;9.70;4.40;;;29.00;99.90;;;;;;5123535;28;20840;-69
2023/10/11 11:49:09;;;;;;;12.03;4.80;;;29.00;99.90;;;;;;5122874;28;20445;-69
2023/10/11 11:51:37;;;;;;;9.73;5.00;;;28.40;99.90;;;;;;5122946;28;20445;-69
2023/10/11 11:54:06;;;;;;;13.33;4.50;;;28.10;99.90;;;;;;5122162;28;20476;-69
2023/10/11 11:56:34;;;;;;;11.13;4.67;;;27.90;99.90;;;;;;5122111;28;20472;-69
2023/10/11 11:59:00;;;;;;;8.90;4.50;;;27.30;99.90;;;;;;5122907;28;20532;-69
2023/10/11 12:01:27;;;;;;;16.60;5.10;;;27.00;99.90;;;;;;5122768;28;20452;-69
2023/10/11 12:03:54;;;;;;;12.00;4.50;;;26.80;99.90;;;;;;5121199;28;20451;-69
2023/10/11 12:06:24;;;;;;;11.10;5.23;;;26.60;99.90;;;;;;5120199;27;20511;-69
2023/10/11 12:08:57;;;;;;;14.10;4.80;;;26.40;99.90;;;;;;5121438;27;20445;-69
2023/10/11 12:11:28;;;;;;;14.77;5.17;;;26.60;99.90;;;;;;5121854;28;20473;-69
2023/10/11 12:13:56;;;;;;;8.40;4.70;;;26.90;99.90;;;;;;5123146;28;20492;-69
2023/10/11 12:16:23;;;;;;;13.77;4.87;;;27.30;99.90;;;;;;5122690;28;20461;-69
2023/10/11 12:18:49;;;;;;;11.63;5.33;;;27.70;99.90;;;;;;5122544;28;20521;-68
2023/10/11 12:21:17;;;;;;;10.80;5.13;;;27.70;99.90;;;;;;5121761;28;20991;-69
2023/10/11 12:23:47;;;;;;;18.20;5.00;;;27.70;99.90;;;;;;5118055;28;20458;-69
2023/10/11 12:26:16;;;;;;;14.37;5.30;;;28.00;99.90;;;;;;5109224;28;20825;-69
2023/10/11 12:28:43;;;;;;;11.50;4.73;;;28.10;99.90;;;;;;5108727;28;20513;-69
2023/10/11 12:31:10;;;;;;;11.70;5.13;;;27.90;99.90;;;;;;5106904;28;20858;-68
2023/10/11 12:33:36;;;;;;;15.30;4.87;;;27.90;99.90;;;;;;5107553;27;20602;-69
2023/10/11 12:36:05;;;;;;;15.30;4.80;;;28.30;99.90;;;;;;5107266;27;20478;-68
2023/10/11 12:38:36;;;;;;;13.83;5.00;;;28.50;99.90;;;;;;5109126;28;20465;-68
2023/10/11 12:41:03;;;;;;;7.77;4.77;;;28.60;99.90;;;;;;5108571;28;20453;-69
2023/10/11 12:43:30;;;;;;;11.30;4.97;;;28.70;99.90;;;;;;5108897;28;21200;-69
2023/10/11 12:45:57;;;;;;;17.60;5.17;;;28.90;99.90;;;;;;5108332;28;20464;-69
2023/10/11 12:48:24;;;;;;;16.00;5.33;;;29.00;99.90;;;;;;5106822;27;20494;-69
2023/10/11 12:50:51;;;;;;;16.87;4.63;;;29.00;99.90;;;;;;5107970;28;20453;-69
2023/10/11 12:53:18;;;;;;;13.67;4.30;;;29.10;99.90;;;;;;5107947;28;20546;-69
2023/10/11 12:55:49;;;;;;;8.70;4.03;;;29.20;99.90;;;;;;5106642;28;20446;-69
2023/10/11 12:58:16;;;;;;;9.20;4.60;;;29.10;99.90;;;;;;5107968;28;20464;-70
2023/10/11 13:00:49;;;;;;;14.20;3.73;;;29.20;99.90;;;;;;5107210;28;20544;-69
2023/10/11 13:03:18;;;;;;;10.73;3.50;;;29.00;99.80;;;;;;5108650;28;20438;-69
2023/10/11 13:05:46;;;;;;;6.73;3.53;;;29.00;98.40;;;;;;5107855;28;20524;-68
2023/10/11 13:08:14;;;;;;;10.23;3.47;;;29.10;98.60;;;;;;5106577;28;20799;-68